sensor_id;sensor_type;location;lat;lon;timestamp;pressure;altitude;pressure_sealevel;temperature;humidity
11808;BME280;5961;42.640;23.380;2023-08-20T00:01:14;94369.56;;;24.20;59.50
11808;BME280;5961;42.640;23.380;2023-08-20T00:03:44;94359.91;;;24.15;59.42
11808;BME280;5961;42.640;23.380;2023-08-20T00:06:13;94354.59;;;24.04;59.51
11808;BME280;5961;42.640;23.380;2023-08-20T00:08:41;94365.97;;;23.96;60.18
11808;BME280;5961;42.640;23.380;2023-08-20T00:11:08;94354.38;;;23.92;60.14
11808;BME280;5961;42.640;23.380;2023-08-20T00:13:35;94361.00;;;23.91;60.94
11808;BME280;5961;42.640;23.380;2023-08-20T00:16:02;94361.00;;;23.91;60.98
11808;BME280;5961;42.640;23.380;2023-08-20T00:18:29;94354.84;;;23.87;60.87
11808;BME280;5961;42.640;23.380;2023-08-20T00:20:57;94347.47;;;23.87;61.39
11808;BME280;5961;42.640;23.380;2023-08-20T00:23:27;94362.53;;;23.92;60.65
11808;BME280;5961;42.640;23.380;2023-08-20T00:25:54;94361.41;;;23.89;61.02
11808;BME280;5961;42.640;23.380;2023-08-20T00:28:21;94358.69;;;23.89;60.86
11808;BME280;5961;42.640;23.380;2023-08-20T00:30:47;94360.59;;;23.92;61.39
11808;BME280;5961;42.640;23.380;2023-08-20T00:33:17;94366.81;;;23.93;61.58
11808;BME280;5961;42.640;23.380;2023-08-20T00:35:43;94363.97;;;24.00;61.40
11808;BME280;5961;42.640;23.380;2023-08-20T00:38:10;94363.56;;;24.01;61.26
11808;BME280;5961;42.640;23.380;2023-08-20T00:40:38;94358.56;;;23.96;61.05
11808;BME280;5961;42.640;23.380;2023-08-20T00:43:05;94363.63;;;23.98;61.30
11808;BME280;5961;42.640;23.380;2023-08-20T00:45:31;94357.03;;;23.99;61.64
11808;BME280;5961;42.640;23.380;2023-08-20T00:47:58;94351.69;;;23.92;61.66
11808;BME280;5961;42.640;23.380;2023-08-20T00:50:25;94351.25;;;23.93;61.47
11808;BME280;5961;42.640;23.380;2023-08-20T00:52:52;94357.47;;;23.94;61.75
11808;BME280;5961;42.640;23.380;2023-08-20T00:55:18;94354.44;;;23.88;61.91
11808;BME280;5961;42.640;23.380;2023-08-20T00:57:46;94352.84;;;23.91;61.68
11808;BME280;5961;42.640;23.380;2023-08-20T01:00:13;94357.09;;;23.92;61.68
11808;BME280;5961;42.640;23.380;2023-08-20T01:02:41;94357.94;;;23.89;62.21
11808;BME280;5961;42.640;23.380;2023-08-20T01:05:10;94345.91;;;23.90;61.70
11808;BME280;5961;42.640;23.380;2023-08-20T01:07:46;94350.84;;;23.95;62.00
11808;BME280;5961;42.640;23.380;2023-08-20T01:10:19;94350.50;;;23.93;62.06
11808;BME280;5961;42.640;23.380;2023-08-20T01:12:53;94345.91;;;23.90;61.81
11808;BME280;5961;42.640;23.380;2023-08-20T01:15:20;94350.81;;;23.98;61.79
11808;BME280;5961;42.640;23.380;2023-08-20T01:17:48;94345.38;;;23.98;62.16
11808;BME280;5961;42.640;23.380;2023-08-20T01:20:15;94330.34;;;23.90;61.74
11808;BME280;5961;42.640;23.380;2023-08-20T01:25:46;94349.63;;;23.99;62.02
11808;BME280;5961;42.640;23.380;2023-08-20T01:28:24;94352.41;;;23.96;61.83
11808;BME280;5961;42.640;23.380;2023-08-20T01:30:52;94352.34;;;23.99;62.08
11808;BME280;5961;42.640;23.380;2023-08-20T01:33:20;94341.91;;;23.98;62.25
11808;BME280;5961;42.640;23.380;2023-08-20T01:35:47;94347.31;;;23.98;62.12
11808;BME280;5961;42.640;23.380;2023-08-20T01:38:13;94341.16;;;23.94;62.28
11808;BME280;5961;42.640;23.380;2023-08-20T01:40:40;94336.56;;;23.91;62.42
11808;BME280;5961;42.640;23.380;2023-08-20T01:43:07;94329.19;;;23.91;61.72
11808;BME280;5961;42.640;23.380;2023-08-20T01:45:35;94330.31;;;23.94;62.01
11808;BME280;5961;42.640;23.380;2023-08-20T01:48:02;94330.00;;;23.88;62.19
11808;BME280;5961;42.640;23.380;2023-08-20T01:50:29;94318.75;;;23.90;62.40
11808;BME280;5961;42.640;23.380;2023-08-20T01:52:55;94330.31;;;23.94;62.13
11808;BME280;5961;42.640;23.380;2023-08-20T01:55:22;94330.31;;;23.94;62.14
11808;BME280;5961;42.640;23.380;2023-08-20T01:57:49;94328.03;;;23.92;62.20
11808;BME280;5961;42.640;23.380;2023-08-20T02:00:15;94331.16;;;23.87;62.69
11808;BME280;5961;42.640;23.380;2023-08-20T02:02:43;94319.63;;;23.83;62.20
11808;BME280;5961;42.640;23.380;2023-08-20T02:05:10;94320.38;;;23.84;62.25
11808;BME280;5961;42.640;23.380;2023-08-20T02:07:37;94315.81;;;23.77;62.91
11808;BME280;5961;42.640;23.380;2023-08-20T02:10:04;94303.13;;;23.71;62.87
11808;BME280;5961;42.640;23.380;2023-08-20T02:12:31;94296.13;;;23.70;63.06
11808;BME280;5961;42.640;23.380;2023-08-20T02:14:58;94300.06;;;23.69;63.13
11808;BME280;5961;42.640;23.380;2023-08-20T02:17:25;94307.81;;;23.67;63.28
11808;BME280;5961;42.640;23.380;2023-08-20T02:19:53;94311.34;;;23.64;63.63
11808;BME280;5961;42.640;23.380;2023-08-20T02:22:20;94301.25;;;23.64;63.54
11808;BME280;5961;42.640;23.380;2023-08-20T02:24:46;94298.91;;;23.66;63.66
11808;BME280;5961;42.640;23.380;2023-08-20T02:27:13;94295.44;;;23.66;63.83
11808;BME280;5961;42.640;23.380;2023-08-20T02:29:40;94298.84;;;23.70;63.58
11808;BME280;5961;42.640;23.380;2023-08-20T02:32:06;94299.63;;;23.70;63.24
11808;BME280;5961;42.640;23.380;2023-08-20T02:34:33;94305.81;;;23.71;63.00
11808;BME280;5961;42.640;23.380;2023-08-20T02:37:01;94296.25;;;23.63;63.12
11808;BME280;5961;42.640;23.380;2023-08-20T02:39:28;94299.25;;;23.41;64.14
11808;BME280;5961;42.640;23.380;2023-08-20T02:41:54;94304.22;;;23.46;63.98
11808;BME280;5961;42.640;23.380;2023-08-20T02:44:21;94298.13;;;23.35;64.78
11808;BME280;5961;42.640;23.380;2023-08-20T02:46:48;94302.75;;;23.38;64.29
11808;BME280;5961;42.640;23.380;2023-08-20T02:49:14;94296.97;;;23.33;64.63
11808;BME280;5961;42.640;23.380;2023-08-20T02:51:42;94302.00;;;23.34;64.81
11808;BME280;5961;42.640;23.380;2023-08-20T02:54:11;94295.22;;;23.19;65.17
11808;BME280;5961;42.640;23.380;2023-08-20T02:56:37;94297.16;;;23.19;65.22
11808;BME280;5961;42.640;23.380;2023-08-20T02:59:04;94306.59;;;23.07;65.80
11808;BME280;5961;42.640;23.380;2023-08-20T03:01:31;94308.22;;;23.01;65.69
11808;BME280;5961;42.640;23.380;2023-08-20T03:03:57;94310.63;;;22.92;66.33
11808;BME280;5961;42.640;23.380;2023-08-20T03:06:24;94304.56;;;22.81;66.13
11808;BME280;5961;42.640;23.380;2023-08-20T03:08:51;94314.31;;;22.75;66.76
11808;BME280;5961;42.640;23.380;2023-08-20T03:11:19;94312.13;;;22.56;67.49
11808;BME280;5961;42.640;23.380;2023-08-20T03:13:45;94308.75;;;22.45;67.87
11808;BME280;5961;42.640;23.380;2023-08-20T03:16:12;94301.13;;;22.32;68.37
11808;BME280;5961;42.640;23.380;2023-08-20T03:18:39;94308.91;;;22.27;68.48
11808;BME280;5961;42.640;23.380;2023-08-20T03:21:05;94308.91;;;22.27;68.65
11808;BME280;5961;42.640;23.380;2023-08-20T03:23:32;94301.97;;;22.22;68.92
11808;BME280;5961;42.640;23.380;2023-08-20T03:25:59;94309.78;;;22.10;69.50
11808;BME280;5961;42.640;23.380;2023-08-20T03:28:27;94305.16;;;22.07;69.73
11808;BME280;5961;42.640;23.380;2023-08-20T03:30:53;94305.25;;;22.00;70.11
11808;BME280;5961;42.640;23.380;2023-08-20T03:33:20;94294.09;;;21.91;70.63
11808;BME280;5961;42.640;23.380;2023-08-20T03:35:47;94302.97;;;21.87;71.00
11808;BME280;5961;42.640;23.380;2023-08-20T03:38:13;94310.72;;;21.89;71.07
11808;BME280;5961;42.640;23.380;2023-08-20T03:40:40;94301.44;;;21.90;71.19
11808;BME280;5961;42.640;23.380;2023-08-20T03:43:07;94299.13;;;21.88;70.75
11808;BME280;5961;42.640;23.380;2023-08-20T03:45:35;94296.81;;;21.83;71.07
11808;BME280;5961;42.640;23.380;2023-08-20T03:48:02;94297.59;;;21.80;71.01
11808;BME280;5961;42.640;23.380;2023-08-20T03:50:28;94296.06;;;21.76;71.44
11808;BME280;5961;42.640;23.380;2023-08-20T03:52:55;94291.44;;;21.76;71.37
11808;BME280;5961;42.640;23.380;2023-08-20T03:55:22;94292.31;;;21.63;71.95
11808;BME280;5961;42.640;23.380;2023-08-20T03:57:48;94270.38;;;21.47;72.38
11808;BME280;5961;42.640;23.380;2023-08-20T04:00:15;94283.53;;;21.45;72.82
11808;BME280;5961;42.640;23.380;2023-08-20T04:02:43;94297.84;;;21.34;73.53
11808;BME280;5961;42.640;23.380;2023-08-20T04:05:10;94302.91;;;21.32;73.86
11808;BME280;5961;42.640;23.380;2023-08-20T04:07:37;94292.09;;;21.32;73.95
11808;BME280;5961;42.640;23.380;2023-08-20T04:10:04;94292.09;;;21.29;74.02
11808;BME280;5961;42.640;23.380;2023-08-20T04:12:30;94201.59;;;20.64;74.15
11808;BME280;5961;42.640;23.380;2023-08-20T04:14:57;94287.47;;;21.29;74.12
11808;BME280;5961;42.640;23.380;2023-08-20T04:17:24;94288.63;;;21.21;74.39
11808;BME280;5961;42.640;23.380;2023-08-20T04:19:52;94298.28;;;21.22;74.71
11808;BME280;5961;42.640;23.380;2023-08-20T04:22:19;94299.44;;;21.25;74.75
11808;BME280;5961;42.640;23.380;2023-08-20T04:24:45;94305.63;;;21.18;74.97
11808;BME280;5961;42.640;23.380;2023-08-20T04:27:12;94304.13;;;21.17;75.21
11808;BME280;5961;42.640;23.380;2023-08-20T04:29:39;94302.94;;;21.18;74.92
11808;BME280;5961;42.640;23.380;2023-08-20T04:32:05;94287.91;;;21.07;74.96
11808;BME280;5961;42.640;23.380;2023-08-20T04:34:32;94294.03;;;21.21;74.96
11808;BME280;5961;42.640;23.380;2023-08-20T04:37:00;94299.84;;;21.23;75.07
11808;BME280;5961;42.640;23.380;2023-08-20T04:39:27;94299.06;;;21.19;75.17
11808;BME280;5961;42.640;23.380;2023-08-20T04:41:54;94304.06;;;21.24;75.10
11808;BME280;5961;42.640;23.380;2023-08-20T04:44:22;94297.13;;;21.23;74.95
11808;BME280;5961;42.640;23.380;2023-08-20T04:46:49;94306.38;;;21.29;74.77
11808;BME280;5961;42.640;23.380;2023-08-20T04:49:16;94275.16;;;21.07;74.87
11808;BME280;5961;42.640;23.380;2023-08-20T04:51:42;94301.31;;;21.39;74.58
11808;BME280;5961;42.640;23.380;2023-08-20T04:54:10;94303.25;;;21.42;74.95
11808;BME280;5961;42.640;23.380;2023-08-20T04:56:37;94310.94;;;21.43;75.01
11808;BME280;5961;42.640;23.380;2023-08-20T04:59:04;94303.19;;;21.49;74.93
11808;BME280;5961;42.640;23.380;2023-08-20T05:01:30;94298.53;;;21.53;75.15
11808;BME280;5961;42.640;23.380;2023-08-20T05:03:57;94310.84;;;21.64;75.09
11808;BME280;5961;42.640;23.380;2023-08-20T05:06:24;94293.44;;;21.69;74.97
11808;BME280;5961;42.640;23.380;2023-08-20T05:08:50;94303.00;;;21.84;74.70
11808;BME280;5961;42.640;23.380;2023-08-20T05:11:18;94305.25;;;21.96;74.57
11808;BME280;5961;42.640;23.380;2023-08-20T05:13:45;94308.63;;;22.11;73.91
11808;BME280;5961;42.640;23.380;2023-08-20T05:16:12;94308.94;;;22.23;73.48
11808;BME280;5961;42.640;23.380;2023-08-20T05:18:38;94311.16;;;22.35;73.21
11808;BME280;5961;42.640;23.380;2023-08-20T05:21:05;94311.78;;;22.50;72.63
11808;BME280;5961;42.640;23.380;2023-08-20T05:23:32;94314.78;;;22.63;71.95
11808;BME280;5961;42.640;23.380;2023-08-20T05:25:58;94313.16;;;22.72;71.63
11808;BME280;5961;42.640;23.380;2023-08-20T05:28:26;94324.25;;;22.85;71.06
11808;BME280;5961;42.640;23.380;2023-08-20T05:30:54;94326.53;;;22.90;71.07
11808;BME280;5961;42.640;23.380;2023-08-20T05:33:22;94314.09;;;22.96;70.47
11808;BME280;5961;42.640;23.380;2023-08-20T05:35:49;94322.84;;;23.07;70.54
11808;BME280;5961;42.640;23.380;2023-08-20T05:38:15;94329.03;;;23.11;70.48
11808;BME280;5961;42.640;23.380;2023-08-20T05:40:42;94310.13;;;23.04;70.02
11808;BME280;5961;42.640;23.380;2023-08-20T05:43:09;94324.28;;;23.19;70.19
11808;BME280;5961;42.640;23.380;2023-08-20T05:45:37;94326.13;;;23.25;70.13
11808;BME280;5961;42.640;23.380;2023-08-20T05:48:05;94324.56;;;23.28;70.04
11808;BME280;5961;42.640;23.380;2023-08-20T05:50:31;94335.69;;;23.37;70.11
11808;BME280;5961;42.640;23.380;2023-08-20T05:52:58;94324.06;;;23.40;70.24
11808;BME280;5961;42.640;23.380;2023-08-20T05:55:25;94336.69;;;23.54;69.72
11808;BME280;5961;42.640;23.380;2023-08-20T05:57:51;94350.16;;;23.61;68.91
11808;BME280;5961;42.640;23.380;2023-08-20T06:00:18;94345.75;;;23.70;68.52
11808;BME280;5961;42.640;23.380;2023-08-20T06:02:46;94332.97;;;23.71;68.65
11808;BME280;5961;42.640;23.380;2023-08-20T06:05:13;94338.97;;;23.85;68.94
11808;BME280;5961;42.640;23.380;2023-08-20T06:07:40;94339.66;;;23.93;68.33
11808;BME280;5961;42.640;23.380;2023-08-20T06:10:07;94344.13;;;24.03;68.09
11808;BME280;5961;42.640;23.380;2023-08-20T06:12:34;94344.44;;;24.09;67.15
11808;BME280;5961;42.640;23.380;2023-08-20T06:15:01;94344.81;;;24.14;66.75
11808;BME280;5961;42.640;23.380;2023-08-20T06:17:28;94349.34;;;24.21;66.20
11808;BME280;5961;42.640;23.380;2023-08-20T06:19:56;94347.28;;;24.28;66.06
11808;BME280;5961;42.640;23.380;2023-08-20T06:22:22;94348.31;;;24.38;65.90
11808;BME280;5961;42.640;23.380;2023-08-20T06:24:49;94348.63;;;24.43;65.51
11808;BME280;5961;42.640;23.380;2023-08-20T06:27:16;94350.03;;;24.51;65.27
11808;BME280;5961;42.640;23.380;2023-08-20T06:29:42;94356.53;;;24.57;65.30
11808;BME280;5961;42.640;23.380;2023-08-20T06:32:09;94350.94;;;24.68;64.75
11808;BME280;5961;42.640;23.380;2023-08-20T06:34:36;94348.16;;;24.72;65.26
11808;BME280;5961;42.640;23.380;2023-08-20T06:37:04;94295.44;;;24.42;64.92
11808;BME280;5961;42.640;23.380;2023-08-20T06:39:31;94348.28;;;24.88;64.65
11808;BME280;5961;42.640;23.380;2023-08-20T06:41:57;94349.72;;;24.96;64.67
11808;BME280;5961;42.640;23.380;2023-08-20T06:44:24;94363.09;;;25.06;64.92
11808;BME280;5961;42.640;23.380;2023-08-20T06:46:51;94359.16;;;25.11;64.49
11808;BME280;5961;42.640;23.380;2023-08-20T06:49:17;94366.31;;;25.21;64.43
11808;BME280;5961;42.640;23.380;2023-08-20T06:51:44;94362.31;;;25.29;63.88
11808;BME280;5961;42.640;23.380;2023-08-20T06:54:14;94363.69;;;25.37;64.01
11808;BME280;5961;42.640;23.380;2023-08-20T06:56:41;94366.28;;;25.44;63.04
11808;BME280;5961;42.640;23.380;2023-08-20T06:59:07;94365.75;;;25.53;62.95
11808;BME280;5961;42.640;23.380;2023-08-20T07:01:35;94359.41;;;25.59;61.72
11808;BME280;5961;42.640;23.380;2023-08-20T07:04:02;94365.53;;;25.63;59.67
11808;BME280;5961;42.640;23.380;2023-08-20T07:06:29;94369.34;;;25.66;59.63
11808;BME280;5961;42.640;23.380;2023-08-20T07:08:55;94369.28;;;25.70;59.99
11808;BME280;5961;42.640;23.380;2023-08-20T07:11:23;94367.69;;;25.72;59.45
11808;BME280;5961;42.640;23.380;2023-08-20T07:13:50;94367.28;;;25.74;58.74
11808;BME280;5961;42.640;23.380;2023-08-20T07:16:16;94365.25;;;25.78;57.40
11808;BME280;5961;42.640;23.380;2023-08-20T07:18:43;94361.38;;;25.75;56.92
11808;BME280;5961;42.640;23.380;2023-08-20T07:21:10;94364.25;;;25.88;58.03
11808;BME280;5961;42.640;23.380;2023-08-20T07:23:36;94363.84;;;25.89;57.56
11808;BME280;5961;42.640;23.380;2023-08-20T07:26:04;94366.38;;;25.96;57.80
11808;BME280;5961;42.640;23.380;2023-08-20T07:28:33;94368.63;;;26.01;57.40
11808;BME280;5961;42.640;23.380;2023-08-20T07:31:17;94356.13;;;26.04;57.49
11808;BME280;5961;42.640;23.380;2023-08-20T07:33:46;94371.09;;;26.12;57.43
11808;BME280;5961;42.640;23.380;2023-08-20T07:36:13;94369.88;;;26.16;57.55
11808;BME280;5961;42.640;23.380;2023-08-20T07:38:40;94357.44;;;26.15;56.61
11808;BME280;5961;42.640;23.380;2023-08-20T07:41:08;94365.34;;;26.26;57.05
11808;BME280;5961;42.640;23.380;2023-08-20T07:43:37;94348.50;;;26.15;56.31
11808;BME280;5961;42.640;23.380;2023-08-20T07:46:04;94367.09;;;26.36;56.36
11808;BME280;5961;42.640;23.380;2023-08-20T07:48:30;94353.78;;;26.38;55.71
11808;BME280;5961;42.640;23.380;2023-08-20T07:50:57;94365.81;;;26.41;55.21
11808;BME280;5961;42.640;23.380;2023-08-20T07:53:24;94359.94;;;26.42;54.56
11808;BME280;5961;42.640;23.380;2023-08-20T07:55:50;94366.75;;;26.50;54.66
11808;BME280;5961;42.640;23.380;2023-08-20T07:58:17;94369.84;;;26.52;53.33
11808;BME280;5961;42.640;23.380;2023-08-20T08:00:45;94365.91;;;26.53;51.92
11808;BME280;5961;42.640;23.380;2023-08-20T08:03:12;94358.75;;;26.59;51.88
11808;BME280;5961;42.640;23.380;2023-08-20T08:05:40;94351.69;;;26.62;52.60
11808;BME280;5961;42.640;23.380;2023-08-20T08:08:06;94360.13;;;26.67;51.93
11808;BME280;5961;42.640;23.380;2023-08-20T08:10:33;94359.69;;;26.69;50.70
11808;BME280;5961;42.640;23.380;2023-08-20T08:13:00;94352.50;;;26.75;49.56
11808;BME280;5961;42.640;23.380;2023-08-20T08:15:26;94355.94;;;26.79;50.10
11808;BME280;5961;42.640;23.380;2023-08-20T08:17:54;94360.13;;;26.84;50.12
11808;BME280;5961;42.640;23.380;2023-08-20T08:20:21;94364.22;;;26.92;48.30
11808;BME280;5961;42.640;23.380;2023-08-20T08:22:48;94357.91;;;26.95;47.46
11808;BME280;5961;42.640;23.380;2023-08-20T08:25:15;94352.38;;;26.98;45.15
11808;BME280;5961;42.640;23.380;2023-08-20T08:27:42;94363.75;;;27.09;44.36
11808;BME280;5961;42.640;23.380;2023-08-20T08:30:09;94363.00;;;27.09;43.35
11808;BME280;5961;42.640;23.380;2023-08-20T08:32:35;94361.44;;;27.08;44.17
11808;BME280;5961;42.640;23.380;2023-08-20T08:35:04;94365.53;;;27.16;43.07
11808;BME280;5961;42.640;23.380;2023-08-20T08:37:31;94361.09;;;27.22;43.58
11808;BME280;5961;42.640;23.380;2023-08-20T08:39:58;94361.75;;;27.26;44.95
11808;BME280;5961;42.640;23.380;2023-08-20T08:42:25;94359.59;;;27.34;43.75
11808;BME280;5961;42.640;23.380;2023-08-20T08:44:52;94349.78;;;27.36;41.17
11808;BME280;5961;42.640;23.380;2023-08-20T08:47:19;94350.41;;;27.44;40.85
11808;BME280;5961;42.640;23.380;2023-08-20T08:49:48;94358.38;;;27.51;40.28
11808;BME280;5961;42.640;23.380;2023-08-20T08:52:16;94362.88;;;27.57;39.97
11808;BME280;5961;42.640;23.380;2023-08-20T08:54:43;94355.56;;;27.54;40.25
11808;BME280;5961;42.640;23.380;2023-08-20T08:57:10;94359.97;;;27.64;40.86
11808;BME280;5961;42.640;23.380;2023-08-20T08:59:37;94360.19;;;27.70;40.39
11808;BME280;5961;42.640;23.380;2023-08-20T09:02:07;94352.09;;;27.66;41.01
11808;BME280;5961;42.640;23.380;2023-08-20T09:04:35;94358.69;;;27.82;40.71
11808;BME280;5961;42.640;23.380;2023-08-20T09:07:04;94365.69;;;27.83;41.15
11808;BME280;5961;42.640;23.380;2023-08-20T09:09:32;94355.75;;;27.89;41.18
11808;BME280;5961;42.640;23.380;2023-08-20T09:11:59;94352.16;;;27.92;41.43
11808;BME280;5961;42.640;23.380;2023-08-20T09:14:28;94359.78;;;27.97;41.68
11808;BME280;5961;42.640;23.380;2023-08-20T09:16:55;94345.81;;;27.95;40.59
11808;BME280;5961;42.640;23.380;2023-08-20T09:19:22;94360.25;;;28.08;39.66
11808;BME280;5961;42.640;23.380;2023-08-20T09:21:49;94359.28;;;28.14;38.67
11808;BME280;5961;42.640;23.380;2023-08-20T09:24:26;94347.59;;;28.14;37.92
11808;BME280;5961;42.640;23.380;2023-08-20T09:26:58;94346.06;;;28.13;36.86
11808;BME280;5961;42.640;23.380;2023-08-20T09:29:25;94362.25;;;28.20;36.33
11808;BME280;5961;42.640;23.380;2023-08-20T09:32:00;94353.84;;;28.27;36.48
11808;BME280;5961;42.640;23.380;2023-08-20T09:34:36;94358.75;;;28.32;36.59
11808;BME280;5961;42.640;23.380;2023-08-20T09:37:03;94358.31;;;28.33;36.40
11808;BME280;5961;42.640;23.380;2023-08-20T09:39:29;94352.75;;;28.37;36.77
11808;BME280;5961;42.640;23.380;2023-08-20T09:41:58;94350.00;;;28.37;35.82
11808;BME280;5961;42.640;23.380;2023-08-20T09:44:27;94354.16;;;28.42;35.47
11808;BME280;5961;42.640;23.380;2023-08-20T09:46:58;94355.69;;;28.43;35.36
11808;BME280;5961;42.640;23.380;2023-08-20T09:49:29;94349.66;;;28.48;35.09
11808;BME280;5961;42.640;23.380;2023-08-20T09:51:57;94349.56;;;28.51;35.38
11808;BME280;5961;42.640;23.380;2023-08-20T09:54:30;94349.34;;;28.58;34.99
11808;BME280;5961;42.640;23.380;2023-08-20T09:57:05;94343.09;;;28.58;35.32
11808;BME280;5961;42.640;23.380;2023-08-20T09:59:34;94342.78;;;28.68;35.42
11808;BME280;5961;42.640;23.380;2023-08-20T10:02:01;94348.03;;;28.75;35.72
11808;BME280;5961;42.640;23.380;2023-08-20T10:04:28;94350.19;;;28.80;35.26
11808;BME280;5961;42.640;23.380;2023-08-20T10:06:57;94349.97;;;28.88;34.81
11808;BME280;5961;42.640;23.380;2023-08-20T10:09:25;94323.72;;;28.77;35.18
11808;BME280;5961;42.640;23.380;2023-08-20T10:11:52;94338.78;;;28.95;35.05
11808;BME280;5961;42.640;23.380;2023-08-20T10:14:20;94343.13;;;29.05;35.15
11808;BME280;5961;42.640;23.380;2023-08-20T10:16:47;94346.50;;;29.09;34.48
11808;BME280;5961;42.640;23.380;2023-08-20T10:19:15;94345.31;;;29.10;34.73
11808;BME280;5961;42.640;23.380;2023-08-20T10:21:44;94345.31;;;29.10;35.23
11808;BME280;5961;42.640;23.380;2023-08-20T10:24:16;94342.22;;;29.08;35.29
11808;BME280;5961;42.640;23.380;2023-08-20T10:26:45;94339.06;;;29.09;36.23
11808;BME280;5961;42.640;23.380;2023-08-20T10:29:37;94349.00;;;29.16;35.86
11808;BME280;5961;42.640;23.380;2023-08-20T10:32:06;94336.97;;;29.13;35.23
11808;BME280;5961;42.640;23.380;2023-08-20T10:34:33;94340.22;;;29.21;35.95
11808;BME280;5961;42.640;23.380;2023-08-20T10:37:02;94337.28;;;29.28;35.97
11808;BME280;5961;42.640;23.380;2023-08-20T10:39:29;94339.88;;;29.31;36.56
11808;BME280;5961;42.640;23.380;2023-08-20T10:42:08;94339.75;;;29.35;35.76
11808;BME280;5961;42.640;23.380;2023-08-20T10:44:59;94340.41;;;29.39;36.16
11808;BME280;5961;42.640;23.380;2023-08-20T10:47:35;94302.78;;;29.18;36.08
11808;BME280;5961;42.640;23.380;2023-08-20T10:50:03;94337.41;;;29.46;36.68
11808;BME280;5961;42.640;23.380;2023-08-20T10:52:30;94327.41;;;29.52;36.83
11808;BME280;5961;42.640;23.380;2023-08-20T10:54:57;94332.63;;;29.59;36.45
11808;BME280;5961;42.640;23.380;2023-08-20T10:57:33;94325.34;;;29.65;36.64
11808;BME280;5961;42.640;23.380;2023-08-20T11:00:03;94317.97;;;29.75;36.07
11808;BME280;5961;42.640;23.380;2023-08-20T11:02:35;94315.09;;;29.78;36.05
11808;BME280;5961;42.640;23.380;2023-08-20T11:05:03;94315.81;;;29.91;35.42
11808;BME280;5961;42.640;23.380;2023-08-20T11:07:30;94315.84;;;30.01;35.85
11808;BME280;5961;42.640;23.380;2023-08-20T11:10:00;94317.53;;;30.07;34.91
11808;BME280;5961;42.640;23.380;2023-08-20T11:12:29;94321.09;;;30.17;35.13
11808;BME280;5961;42.640;23.380;2023-08-20T11:15:00;94314.25;;;30.21;34.98
11808;BME280;5961;42.640;23.380;2023-08-20T11:17:28;94313.84;;;30.32;34.72
11808;BME280;5961;42.640;23.380;2023-08-20T11:19:55;94309.81;;;30.45;34.47
11808;BME280;5961;42.640;23.380;2023-08-20T11:22:22;94314.41;;;30.58;34.16
11808;BME280;5961;42.640;23.380;2023-08-20T11:24:48;94299.31;;;30.62;33.89
11808;BME280;5961;42.640;23.380;2023-08-20T11:27:15;94293.72;;;30.75;33.76
11808;BME280;5961;42.640;23.380;2023-08-20T11:29:42;94297.22;;;30.84;33.24
11808;BME280;5961;42.640;23.380;2023-08-20T11:32:11;94295.44;;;30.99;33.35
11808;BME280;5961;42.640;23.380;2023-08-20T11:34:37;94292.22;;;31.10;33.47
11808;BME280;5961;42.640;23.380;2023-08-20T11:37:04;94296.34;;;31.24;32.94
11808;BME280;5961;42.640;23.380;2023-08-20T11:39:31;94296.03;;;31.31;32.70
11808;BME280;5961;42.640;23.380;2023-08-20T11:41:58;94287.50;;;31.29;32.54
11808;BME280;5961;42.640;23.380;2023-08-20T11:44:27;94288.41;;;31.44;31.76
11808;BME280;5961;42.640;23.380;2023-08-20T11:46:53;94285.66;;;31.44;31.78
11808;BME280;5961;42.640;23.380;2023-08-20T11:49:28;94294.50;;;31.48;33.04
11808;BME280;5961;42.640;23.380;2023-08-20T11:51:55;94282.78;;;31.57;31.93
11808;BME280;5961;42.640;23.380;2023-08-20T11:54:23;94296.00;;;31.67;32.38
11808;BME280;5961;42.640;23.380;2023-08-20T11:56:52;94286.81;;;31.79;32.06
11808;BME280;5961;42.640;23.380;2023-08-20T11:59:19;94290.16;;;31.92;31.50
11808;BME280;5961;42.640;23.380;2023-08-20T12:01:50;94286.59;;;32.01;31.65
11808;BME280;5961;42.640;23.380;2023-08-20T12:04:17;94288.28;;;32.08;31.21
11808;BME280;5961;42.640;23.380;2023-08-20T12:07:01;94251.38;;;31.90;31.24
11808;BME280;5961;42.640;23.380;2023-08-20T12:09:28;94288.25;;;32.17;31.49
11808;BME280;5961;42.640;23.380;2023-08-20T12:11:55;94282.06;;;32.31;30.85
11808;BME280;5961;42.640;23.380;2023-08-20T12:14:23;94276.84;;;32.42;31.63
11808;BME280;5961;42.640;23.380;2023-08-20T12:16:50;94273.00;;;32.48;31.05
11808;BME280;5961;42.640;23.380;2023-08-20T12:19:17;94273.53;;;32.62;30.78
11808;BME280;5961;42.640;23.380;2023-08-20T12:21:45;94272.25;;;32.72;30.11
11808;BME280;5961;42.640;23.380;2023-08-20T12:24:12;94268.69;;;32.80;30.17
11808;BME280;5961;42.640;23.380;2023-08-20T12:26:39;94226.31;;;32.54;29.83
11808;BME280;5961;42.640;23.380;2023-08-20T12:29:07;94261.81;;;32.99;29.80
11808;BME280;5961;42.640;23.380;2023-08-20T12:31:34;94262.69;;;33.05;30.22
11808;BME280;5961;42.640;23.380;2023-08-20T12:34:01;94220.28;;;32.88;29.87
11808;BME280;5961;42.640;23.380;2023-08-20T12:36:28;94263.59;;;33.26;30.04
11808;BME280;5961;42.640;23.380;2023-08-20T12:38:56;94253.16;;;33.30;29.80
11808;BME280;5961;42.640;23.380;2023-08-20T12:41:23;94261.44;;;33.45;30.54
11808;BME280;5961;42.640;23.380;2023-08-20T12:43:50;94256.88;;;33.42;29.11
11808;BME280;5961;42.640;23.380;2023-08-20T12:46:17;94260.88;;;33.55;29.05
11808;BME280;5961;42.640;23.380;2023-08-20T12:48:44;94263.75;;;33.61;29.16
11808;BME280;5961;42.640;23.380;2023-08-20T12:51:11;94263.38;;;33.68;28.33
11808;BME280;5961;42.640;23.380;2023-08-20T12:53:39;94261.47;;;33.74;28.75
11808;BME280;5961;42.640;23.380;2023-08-20T12:56:07;94255.59;;;33.81;29.22
11808;BME280;5961;42.640;23.380;2023-08-20T12:58:34;94258.44;;;33.87;28.66
11808;BME280;5961;42.640;23.380;2023-08-20T13:01:01;94262.50;;;33.91;28.76
11808;BME280;5961;42.640;23.380;2023-08-20T13:03:28;94253.28;;;33.94;28.81
11808;BME280;5961;42.640;23.380;2023-08-20T13:05:55;94247.28;;;33.96;28.38